Time;durP1;ratioP1;P1;durP2;ratioP2;P2;SDS_P1;SDS_P2;PMS_P1;PMS_P2;Temp;Humidity;BMP_temperature;BMP_pressure;BME280_temperature;BME280_humidity;BME280_pressure;Samples;Min_cycle;Max_cycle;Signal;HPM_P1;HPM_P2
2021/04/16 00:08:11;;;;;;;;;;;;;;;;;;;;;
2021/04/16 00:38:30;;;;;;;;;;;;;;;;;;;;;
2021/04/16 02:16:40;;;;;;;;;;;;;;;;;;;;;
2021/04/16 02:30:30;;;;;;;;;;;;;;;;;;;;;
2021/04/16 04:28:00;;;;;;;9.38;7.75;;;1.80;95.90;;;;;;5034791;28;20214;-87
2021/04/16 04:30:29;;;;;;;11.07;7.68;;;1.80;96.10;;;;;;5038389;28;20202;-85
2021/04/16 04:32:57;;;;;;;9.25;7.43;;;1.80;96.20;;;;;;5038566;28;20210;-86
2021/04/16 04:35:25;;;;;;;11.18;8.73;;;1.70;96.30;;;;;;5039435;28;20195;-87
2021/04/16 04:37:53;;;;;;;9.32;8.00;;;1.80;96.30;;;;;;5018054;28;20203;-86
2021/04/16 04:40:21;;;;;;;13.02;7.85;;;1.80;96.30;;;;;;5016401;28;20633;-87
2021/04/16 04:42:48;;;;;;;9.90;7.95;;;1.80;96.30;;;;;;5018762;28;20243;-87
2021/04/16 04:45:17;;;;;;;9.10;7.25;;;1.80;96.30;;;;;;5017183;28;20294;-87
2021/04/16 04:47:44;;;;;;;8.05;6.60;;;1.80;96.50;;;;;;5016031;28;20231;-86
2021/04/16 04:50:15;;;;;;;11.48;8.07;;;1.80;96.70;;;;;;5009766;28;20710;-86
2021/04/16 04:52:43;;;;;;;8.38;7.38;;;1.90;96.80;;;;;;5010640;28;20203;-86
2021/04/16 04:55:14;;;;;;;9.15;7.95;;;1.90;96.60;;;;;;5011457;28;20220;-86
2021/04/16 05:02:02;;;;;;;;;;;;;;;;;;;;;
2021/04/16 05:05:19;;;;;;;8.65;6.97;;;2.20;96.40;;;;;;4954301;29;20281;-87
2021/04/16 05:11:18;;;;;;;8.35;6.85;;;2.50;96.60;;;;;;4307962;26;20217;-84
2021/04/16 05:36:34;;;;;;;11.43;7.95;;;3.10;94.20;;;;;;4983507;28;20212;-87
2021/04/16 05:39:01;;;;;;;9.65;8.07;;;3.10;94.20;;;;;;5036134;28;20199;-87
2021/04/16 05:41:27;;;;;;;13.00;8.45;;;3.10;94.20;;;;;;5046941;28;20205;-86
2021/04/16 05:43:53;;;;;;;8.82;7.30;;;3.10;94.40;;;;;;5062934;28;20247;-87
2021/04/16 05:46:20;;;;;;;8.20;6.82;;;3.20;94.30;;;;;;5065777;28;20196;-86
2021/04/16 06:01:32;;;;;;;10.30;6.25;;;4.00;91.40;;;;;;5011434;28;20231;-86
2021/04/16 06:03:58;;;;;;;12.52;7.88;;;4.10;91.20;;;;;;5043860;28;20262;-86
2021/04/16 06:06:24;;;;;;;10.23;8.00;;;4.30;91.20;;;;;;5054217;28;20265;-87
2021/04/16 06:08:51;;;;;;;8.00;7.20;;;4.40;90.90;;;;;;5063952;28;20430;-87
2021/04/16 06:11:21;;;;;;;14.82;8.10;;;4.60;90.40;;;;;;5059596;28;20192;-87
2021/04/16 06:13:47;;;;;;;7.85;6.45;;;4.80;89.60;;;;;;5049435;28;20768;-87
2021/04/16 06:16:15;;;;;;;7.82;7.03;;;5.00;88.40;;;;;;5050942;28;20221;-86
2021/04/16 06:18:50;;;;;;;7.90;7.20;;;5.10;87.30;;;;;;5060815;28;20201;-86
2021/04/16 06:21:19;;;;;;;8.43;7.50;;;5.30;87.20;;;;;;5051657;28;20459;-87
2021/04/16 06:23:45;;;;;;;8.23;6.90;;;5.30;86.20;;;;;;5045344;28;20534;-86
2021/04/16 06:26:13;;;;;;;8.77;7.87;;;5.50;85.60;;;;;;5051258;28;20468;-86
2021/04/16 06:28:39;;;;;;;8.10;7.30;;;5.60;84.90;;;;;;5053194;28;20451;-88
2021/04/16 06:31:19;;;;;;;9.23;6.67;;;5.90;83.90;;;;;;5049012;28;20449;-87
2021/04/16 06:34:04;;;;;;;8.10;7.30;;;6.00;82.50;;;;;;5048780;28;20509;-87
2021/04/16 06:36:30;;;;;;;8.63;7.50;;;6.20;82.00;;;;;;5041540;28;20552;-87
2021/04/16 06:39:14;;;;;;;8.27;7.47;;;6.20;81.90;;;;;;5045608;28;20481;-87
2021/04/16 07:14:29;;;;;;;7.87;6.90;;;7.40;76.70;;;;;;5011947;28;20490;-87
2021/04/16 07:20:19;;;;;;;8.73;6.50;;;6.90;79.10;;;;;;5006003;28;20441;-86
2021/04/16 07:33:15;;;;;;;7.27;6.60;;;6.50;81.60;;;;;;4989608;28;20435;-86
2021/04/16 07:39:29;;;;;;;7.73;7.13;;;7.10;80.60;;;;;;5006159;28;20484;-86
2021/04/16 08:06:05;;;;;;;9.93;7.23;;;8.60;74.10;;;;;;4900154;28;20484;-86
2021/04/16 08:21:51;;;;;;;7.00;6.40;;;8.70;72.40;;;;;;4894383;29;20449;-86
2021/04/16 08:44:35;;;;;;;7.70;6.83;;;8.40;74.10;;;;;;4974882;28;20534;-85
2021/04/16 08:47:53;;;;;;;6.63;6.07;;;8.30;74.10;;;;;;5046523;22;20491;-87
2021/04/16 08:50:56;;;;;;;7.27;6.63;;;8.50;74.10;;;;;;5079002;28;20459;-87
2021/04/16 08:57:27;;;;;;;7.07;6.47;;;9.20;71.50;;;;;;5079170;28;20464;-85
2021/04/16 09:00:00;;;;;;;6.07;5.23;;;9.50;70.80;;;;;;5090032;28;20478;-83
2021/04/16 09:02:47;;;;;;;6.07;5.57;;;9.60;69.80;;;;;;5087779;28;20483;-86
2021/04/16 09:05:23;;;;;;;6.57;5.97;;;9.50;69.00;;;;;;5080660;28;20530;-84
2021/04/16 09:07:55;;;;;;;7.23;6.57;;;9.10;69.80;;;;;;5082157;28;20447;-85
2021/04/16 09:10:50;;;;;;;7.23;6.60;;;8.90;71.00;;;;;;5078962;28;20439;-85
2021/04/16 09:13:50;;;;;;;7.30;6.60;;;9.20;71.40;;;;;;5088504;28;20454;-84
2021/04/16 09:16:40;;;;;;;6.50;6.00;;;9.30;70.00;;;;;;5059278;28;20472;-84
2021/04/16 09:19:40;;;;;;;7.80;6.73;;;9.40;70.00;;;;;;5075087;28;20448;-83
2021/04/16 09:22:41;;;;;;;7.30;6.70;;;9.60;69.40;;;;;;5075678;28;20451;-83
2021/04/16 09:25:39;;;;;;;7.20;6.43;;;9.30;69.20;;;;;;5068480;28;20450;-84
2021/04/16 09:28:59;;;;;;;8.27;7.47;;;9.50;69.70;;;;;;5083082;28;20435;-84
2021/04/16 09:31:50;;;;;;;7.83;7.07;;;9.20;69.30;;;;;;5054711;28;20428;-82
2021/04/16 09:34:20;;;;;;;7.70;7.10;;;9.50;69.50;;;;;;5045148;28;20485;-85
2021/04/16 09:36:49;;;;;;;7.10;6.50;;;9.50;68.10;;;;;;5072021;28;20510;-85
2021/04/16 09:39:31;;;;;;;6.43;5.93;;;9.50;67.90;;;;;;5082899;28;20454;-83
2021/04/16 09:41:58;;;;;;;7.27;6.50;;;9.70;67.20;;;;;;5078798;28;20510;-84
2021/04/16 09:44:54;;;;;;;7.30;6.70;;;9.90;66.90;;;;;;5078628;28;20511;-84
2021/04/16 09:47:53;;;;;;;6.53;5.93;;;11.40;64.70;;;;;;5084402;28;21039;-84
2021/04/16 09:50:31;;;;;;;6.53;6.03;;;13.50;57.90;;;;;;5060555;28;20451;-84
2021/04/16 09:53:15;;;;;;;6.90;5.90;;;14.40;53.60;;;;;;5080060;28;20451;-84
2021/04/16 09:56:13;;;;;;;6.00;5.57;;;14.10;53.30;;;;;;5080301;28;20483;-85
2021/04/16 09:59:25;;;;;;;6.23;5.73;;;16.40;52.50;;;;;;5081461;28;20476;-84
2021/04/16 10:06:03;;;;;;;5.70;5.30;;;21.30;42.80;;;;;;5085166;28;20410;-85
2021/04/16 10:08:42;;;;;;;6.57;6.07;;;22.30;39.30;;;;;;5080820;28;20507;-85
2021/04/16 10:11:26;;;;;;;8.20;5.60;;;21.50;37.90;;;;;;5084768;28;20467;-84
2021/04/16 10:14:08;;;;;;;5.60;5.20;;;19.30;39.80;;;;;;5079311;28;21051;-84
2021/04/16 10:17:02;;;;;;;6.27;5.87;;;16.70;42.50;;;;;;5078958;28;20542;-83
2021/04/16 10:19:50;;;;;;;5.93;5.43;;;15.30;45.30;;;;;;5075720;28;20874;-83
2021/04/16 10:22:29;;;;;;;7.23;6.37;;;14.30;47.80;;;;;;5076737;28;20485;-85
2021/04/16 12:38:43;;;;;;;7.10;6.50;;;9.60;62.80;;;;;;5019200;28;20449;-85
2021/04/16 12:41:14;;;;;;;7.13;6.43;;;9.90;62.30;;;;;;5016492;28;20442;-85
2021/04/16 12:43:40;;;;;;;6.23;5.73;;;10.00;60.30;;;;;;5071128;28;20546;-85
2021/04/16 12:46:08;;;;;;;6.57;5.93;;;10.10;59.80;;;;;;5078552;28;20457;-84
2021/04/16 12:48:35;;;;;;;6.53;5.93;;;10.00;59.40;;;;;;5076961;28;20451;-85
2021/04/16 12:51:02;;;;;;;7.10;5.87;;;10.20;59.70;;;;;;5078860;28;20451;-85
2021/04/16 12:53:28;;;;;;;5.97;5.47;;;10.40;59.10;;;;;;5076245;28;20468;-85
2021/04/16 12:55:55;;;;;;;6.53;5.90;;;10.60;59.00;;;;;;5075694;28;20483;-85
2021/04/16 12:58:26;;;;;;;7.03;5.53;;;10.70;58.40;;;;;;5075727;28;20460;-85
2021/04/16 13:00:53;;;;;;;5.47;5.03;;;10.50;57.70;;;;;;5079474;28;20452;-85
2021/04/16 13:03:21;;;;;;;4.50;4.10;;;10.40;57.60;;;;;;5094384;28;20474;-85
2021/04/16 13:05:49;;;;;;;4.53;4.10;;;10.40;57.60;;;;;;5094807;28;20440;-84
2021/04/16 13:08:16;;;;;;;4.97;4.47;;;10.30;57.40;;;;;;5084100;28;20454;-85
2021/04/16 13:10:42;;;;;;;4.20;3.90;;;10.10;57.10;;;;;;5077034;28;20443;-85
2021/04/16 13:13:09;;;;;;;5.07;4.67;;;9.90;58.40;;;;;;5076327;28;20474;-85
2021/04/16 13:15:36;;;;;;;5.37;4.87;;;9.70;59.00;;;;;;5079470;28;20486;-84
2021/04/16 13:18:05;;;;;;;5.10;4.60;;;9.50;59.30;;;;;;5096664;28;20525;-84
2021/04/16 13:20:32;;;;;;;5.27;4.80;;;9.90;59.80;;;;;;5083431;28;20528;-85
2021/04/16 13:22:58;;;;;;;4.60;4.20;;;10.30;58.60;;;;;;5074903;28;20460;-84
2021/04/16 13:25:27;;;;;;;5.93;5.43;;;10.40;57.50;;;;;;5087447;28;20431;-85
2021/04/16 13:27:54;;;;;;;5.33;4.83;;;10.10;57.60;;;;;;5091041;28;20443;-85
2021/04/16 13:30:23;;;;;;;4.80;4.33;;;10.10;57.70;;;;;;5078982;28;20473;-85
2021/04/16 13:32:53;;;;;;;8.47;5.20;;;10.20;57.90;;;;;;5077806;28;20463;-85
2021/04/16 13:35:23;;;;;;;5.40;4.90;;;10.50;57.70;;;;;;5076239;28;20483;-84
2021/04/16 13:37:50;;;;;;;5.00;4.60;;;10.90;57.10;;;;;;5076505;28;20443;-85
2021/04/16 13:40:16;;;;;;;4.30;3.90;;;11.20;55.90;;;;;;5075667;28;20431;-85
2021/04/16 13:42:42;;;;;;;4.20;3.90;;;11.10;54.50;;;;;;5081074;28;20476;-85
2021/04/16 13:45:10;;;;;;;5.23;4.73;;;11.10;54.50;;;;;;5091368;28;20431;-85
2021/04/16 13:47:42;;;;;;;3.83;3.53;;;11.30;54.90;;;;;;5091421;28;20530;-85
2021/04/16 13:50:10;;;;;;;3.90;3.60;;;11.50;54.20;;;;;;5078193;28;20501;-85
2021/04/16 13:52:36;;;;;;;4.57;4.17;;;11.80;54.10;;;;;;5078024;28;21033;-85
2021/04/16 13:55:04;;;;;;;6.20;4.60;;;12.20;53.60;;;;;;5076855;28;20478;-86
2021/04/16 13:57:30;;;;;;;4.30;4.00;;;12.70;52.90;;;;;;5076372;28;20442;-85
2021/04/16 13:59:56;;;;;;;4.30;3.90;;;13.30;52.00;;;;;;5076434;28;20447;-85
2021/04/16 14:02:27;;;;;;;3.47;3.17;;;13.40;50.50;;;;;;5076552;28;20483;-85
2021/04/16 14:04:54;;;;;;;3.67;3.37;;;12.90;50.60;;;;;;5075992;28;21077;-85
2021/04/16 14:07:22;;;;;;;4.67;3.60;;;12.40;51.10;;;;;;5076799;28;20963;-84
2021/04/16 14:09:48;;;;;;;4.43;3.87;;;11.60;51.60;;;;;;5087894;28;20443;-84
2021/04/16 14:12:15;;;;;;;3.50;3.20;;;11.20;53.00;;;;;;5092709;28;20459;-84
2021/04/16 14:14:44;;;;;;;3.53;3.23;;;10.70;53.20;;;;;;5084694;28;20502;-84
2021/04/16 14:17:12;;;;;;;3.47;3.00;;;10.50;54.20;;;;;;5081065;28;20471;-84
2021/04/16 14:19:43;;;;;;;5.40;2.97;;;10.40;53.80;;;;;;5092607;28;20446;-84
2021/04/16 14:22:13;;;;;;;4.83;3.97;;;10.20;54.20;;;;;;5085589;28;20495;-84
2021/04/16 14:24:39;;;;;;;3.27;2.90;;;10.20;54.80;;;;;;5078264;28;20940;-84
2021/04/16 14:27:06;;;;;;;3.27;2.97;;;10.30;54.70;;;;;;5074987;28;20439;-84
2021/04/16 14:29:32;;;;;;;3.50;3.00;;;10.40;54.70;;;;;;5092511;28;20424;-90
2021/04/16 14:32:02;;;;;;;3.57;3.27;;;10.60;54.80;;;;;;5086181;28;20685;-89
2021/04/16 14:34:33;;;;;;;3.50;3.27;;;10.80;54.50;;;;;;5096767;28;20502;-85
2021/04/16 14:36:59;;;;;;;3.40;3.10;;;11.10;53.80;;;;;;5087552;28;20547;-85
2021/04/16 14:39:27;;;;;;;3.53;3.33;;;11.10;53.00;;;;;;5095138;28;20423;-84
2021/04/16 14:41:55;;;;;;;3.40;2.97;;;11.10;52.60;;;;;;5085314;28;20541;-85
2021/04/16 14:44:24;;;;;;;3.80;3.50;;;11.00;52.80;;;;;;5069115;28;20447;-84
2021/04/16 14:46:50;;;;;;;3.40;3.10;;;11.10;52.80;;;;;;5078227;28;20938;-85
2021/04/16 14:49:19;;;;;;;4.40;3.60;;;11.20;53.00;;;;;;5079359;28;20469;-85
2021/04/16 14:51:46;;;;;;;3.60;3.23;;;11.20;53.30;;;;;;5079454;28;20472;-84
2021/04/16 14:54:20;;;;;;;3.63;3.33;;;11.30;53.30;;;;;;5079398;28;20522;-85
2021/04/16 14:56:47;;;;;;;3.33;3.03;;;11.30;52.80;;;;;;5085955;28;20477;-84
2021/04/16 14:59:24;;;;;;;3.63;3.27;;;11.30;52.80;;;;;;5095503;28;20454;-85
2021/04/16 15:01:52;;;;;;;3.60;3.30;;;11.00;53.20;;;;;;5084155;28;20475;-85
2021/04/16 15:04:19;;;;;;;3.80;3.50;;;10.80;53.70;;;;;;5095478;28;20431;-85
2021/04/16 15:06:47;;;;;;;3.07;2.87;;;10.70;54.20;;;;;;5086891;28;20425;-85
2021/04/16 15:09:16;;;;;;;3.27;2.97;;;10.60;54.20;;;;;;5083618;28;20452;-84
2021/04/16 15:11:44;;;;;;;4.30;3.47;;;10.60;54.20;;;;;;5075763;28;20480;-85
2021/04/16 15:14:14;;;;;;;3.30;3.00;;;10.40;54.30;;;;;;5068942;28;20498;-85
2021/04/16 15:16:44;;;;;;;3.30;3.07;;;10.30;54.70;;;;;;5068866;28;20447;-85
2021/04/16 15:19:13;;;;;;;3.90;3.60;;;10.20;55.20;;;;;;5073295;28;20444;-84
2021/04/16 15:21:40;;;;;;;4.20;3.80;;;10.00;55.20;;;;;;5089499;28;20432;-83
2021/04/16 15:24:07;;;;;;;4.60;3.67;;;10.00;55.70;;;;;;5085961;28;20502;-83
2021/04/16 15:26:33;;;;;;;5.47;3.70;;;9.90;56.70;;;;;;5079139;28;20482;-83
2021/04/16 15:29:03;;;;;;;5.63;3.57;;;9.70;57.00;;;;;;5071735;28;20439;-84
2021/04/16 15:31:34;;;;;;;3.50;3.20;;;9.70;57.30;;;;;;5068470;28;20440;-84
2021/04/16 15:47:44;;;;;;;4.17;3.87;;;9.30;58.50;;;;;;5074268;28;20441;-85
2021/04/16 15:50:14;;;;;;;4.63;4.07;;;9.30;59.00;;;;;;5069172;28;20443;-84
2021/04/16 15:52:40;;;;;;;4.10;3.80;;;9.20;59.10;;;;;;5066485;28;20453;-84
2021/04/16 15:55:08;;;;;;;4.00;3.70;;;9.20;59.50;;;;;;5072236;28;20471;-84
2021/04/16 15:57:39;;;;;;;4.90;4.50;;;9.10;60.20;;;;;;5080683;28;20527;-84
2021/04/16 16:00:08;;;;;;;5.27;4.60;;;9.10;62.00;;;;;;5069568;28;20468;-84
2021/04/16 16:02:34;;;;;;;5.30;4.43;;;9.00;63.20;;;;;;5068323;28;20482;-84
2021/04/16 16:05:01;;;;;;;5.00;3.90;;;8.90;64.20;;;;;;5069072;28;20436;-85
2021/04/16 16:07:27;;;;;;;4.63;4.23;;;8.80;64.80;;;;;;5064600;28;20443;-85
2021/04/16 16:09:54;;;;;;;4.83;4.43;;;8.80;65.30;;;;;;5063648;28;20463;-84
2021/04/16 16:12:21;;;;;;;4.30;3.90;;;8.70;65.50;;;;;;5065346;28;20475;-84
2021/04/16 16:14:50;;;;;;;4.97;4.50;;;8.70;65.90;;;;;;5073040;28;20467;-84
2021/04/16 16:17:19;;;;;;;5.80;4.67;;;8.70;66.30;;;;;;5069127;28;20435;-84
2021/04/16 16:19:45;;;;;;;5.00;4.60;;;8.60;66.40;;;;;;5064269;28;20451;-84
2021/04/16 16:22:12;;;;;;;4.77;4.37;;;8.70;66.40;;;;;;5060042;28;20498;-84
2021/04/16 16:24:40;;;;;;;4.50;4.17;;;8.60;66.50;;;;;;5065394;28;20493;-84
2021/04/16 16:27:10;;;;;;;4.80;3.70;;;8.70;66.70;;;;;;5065687;28;20452;-84
2021/04/16 16:29:38;;;;;;;4.83;4.40;;;8.60;66.50;;;;;;5066803;28;20493;-84
2021/04/16 16:32:07;;;;;;;5.70;5.20;;;8.60;66.80;;;;;;5062324;28;20977;-84
2021/04/16 16:34:34;;;;;;;4.70;4.30;;;8.60;66.90;;;;;;5065716;28;20464;-84
2021/04/16 16:37:00;;;;;;;4.03;3.73;;;8.50;67.00;;;;;;5065268;28;20448;-85
2021/04/16 16:39:27;;;;;;;4.30;4.00;;;8.50;67.20;;;;;;5082105;28;20430;-84
2021/04/16 16:41:55;;;;;;;5.40;4.90;;;8.50;67.40;;;;;;5083390;28;20456;-84
2021/04/16 16:44:24;;;;;;;6.23;4.90;;;8.50;67.70;;;;;;5079345;28;20428;-85
2021/04/16 16:46:53;;;;;;;5.03;4.63;;;8.50;67.90;;;;;;5079917;28;20501;-84
2021/04/16 16:49:21;;;;;;;4.60;3.90;;;8.60;67.90;;;;;;5086776;28;20443;-84
2021/04/16 16:51:48;;;;;;;4.43;3.97;;;8.50;68.10;;;;;;5081021;28;20487;-85
2021/04/16 16:54:14;;;;;;;4.63;3.90;;;8.50;68.30;;;;;;5082503;28;20448;-84
2021/04/16 16:56:42;;;;;;;4.63;4.33;;;8.30;68.30;;;;;;5080080;28;20615;-85
2021/04/16 16:59:09;;;;;;;4.37;4.03;;;8.30;69.00;;;;;;5071277;28;20538;-85
2021/04/16 17:01:35;;;;;;;4.70;4.30;;;8.20;69.50;;;;;;5074279;28;20452;-84
2021/04/16 17:04:04;;;;;;;4.60;4.20;;;8.20;69.90;;;;;;5084873;28;20458;-84
2021/04/16 17:06:33;;;;;;;5.07;4.13;;;8.30;69.90;;;;;;5077251;28;20478;-84
2021/04/16 17:09:00;;;;;;;4.47;4.07;;;8.20;69.90;;;;;;5071227;28;20447;-84
2021/04/16 17:11:30;;;;;;;5.20;4.80;;;8.20;70.10;;;;;;5069591;28;20443;-84
2021/04/16 17:14:01;;;;;;;18.97;14.03;;;8.10;70.10;;;;;;5069097;28;20940;-85
2021/04/16 17:16:27;;;;;;;5.50;5.00;;;8.10;70.20;;;;;;5059673;28;20456;-84
2021/04/16 17:18:54;;;;;;;4.73;4.27;;;8.10;70.40;;;;;;5063855;28;20446;-85
2021/04/16 17:21:22;;;;;;;4.73;4.17;;;8.10;70.50;;;;;;5064954;28;20433;-85
2021/04/16 17:23:49;;;;;;;4.57;4.27;;;8.10;70.50;;;;;;5078188;28;20498;-84
2021/04/16 17:26:17;;;;;;;5.00;4.00;;;8.10;70.40;;;;;;5071156;28;21014;-84
2021/04/16 17:28:44;;;;;;;5.33;4.13;;;8.10;70.30;;;;;;5065520;28;20459;-84
2021/04/16 17:31:14;;;;;;;4.93;4.37;;;8.10;70.70;;;;;;5066273;28;20476;-84
2021/04/16 17:33:41;;;;;;;4.20;3.90;;;8.00;70.70;;;;;;5069352;28;20460;-85
2021/04/16 17:36:08;;;;;;;4.90;4.40;;;8.00;71.00;;;;;;5069772;28;20498;-86
2021/04/16 17:38:34;;;;;;;5.73;4.30;;;8.00;71.30;;;;;;5079566;28;20437;-85
2021/04/16 17:41:01;;;;;;;4.47;4.17;;;8.00;71.30;;;;;;5084872;28;20503;-84
2021/04/16 17:43:34;;;;;;;4.97;4.57;;;7.90;71.30;;;;;;5081032;28;20483;-84
2021/04/16 17:46:01;;;;;;;3.67;3.37;;;7.90;71.10;;;;;;5080592;28;20526;-84
2021/04/16 17:48:29;;;;;;;4.77;4.10;;;7.90;70.90;;;;;;5074061;28;20428;-84
2021/04/16 17:50:59;;;;;;;5.33;4.30;;;7.90;71.20;;;;;;5070413;28;20455;-84
2021/04/16 17:53:25;;;;;;;5.10;4.63;;;7.90;71.50;;;;;;5064432;28;20463;-84
2021/04/16 17:55:54;;;;;;;5.27;4.77;;;7.80;71.50;;;;;;5060563;28;20482;-84
2021/04/16 17:58:34;;;;;;;5.13;4.50;;;7.90;71.70;;;;;;5094802;22;20503;-82
2021/04/16 18:01:06;;;;;;;5.03;4.53;;;7.90;71.60;;;;;;5076241;28;20437;-84
2021/04/16 18:03:34;;;;;;;4.70;4.20;;;7.80;71.60;;;;;;5068186;28;21017;-84
2021/04/16 18:06:04;;;;;;;4.87;4.47;;;7.80;71.80;;;;;;5066235;28;20444;-86
2021/04/16 18:08:38;;;;;;;4.90;4.50;;;7.70;72.00;;;;;;5059985;28;20877;-85
2021/04/16 18:11:13;;;;;;;4.90;4.50;;;7.70;72.40;;;;;;5062003;28;20444;-88
2021/04/16 18:13:40;;;;;;;4.87;3.87;;;7.60;72.60;;;;;;5073848;28;20470;-81
2021/04/16 18:16:52;;;;;;;;;;;;;;;;;;;;;
2021/04/16 19:22:00;;;;;;;5.27;4.87;;;7.40;76.40;;;;;;4821389;29;20446;-84
2021/04/16 19:24:29;;;;;;;5.60;5.10;;;7.40;76.80;;;;;;5018551;28;20452;-87
2021/04/16 19:26:58;;;;;;;5.50;5.10;;;7.30;77.10;;;;;;5048878;28;20432;-86
2021/04/16 19:29:44;;;;;;;4.87;4.43;;;7.30;77.40;;;;;;5051999;28;20460;-87
2021/04/16 19:32:13;;;;;;;5.90;5.30;;;7.30;77.50;;;;;;5052085;28;20456;-88
2021/04/16 19:34:39;;;;;;;5.93;5.30;;;7.20;77.70;;;;;;5048968;28;20505;-86
2021/04/16 19:37:14;;;;;;;5.33;4.90;;;7.20;78.70;;;;;;5050266;28;20864;-87
2021/04/16 19:43:30;;;;;;;6.77;6.00;;;7.20;78.20;;;;;;4973617;28;20966;-87
2021/04/16 19:46:06;;;;;;;5.03;4.63;;;7.20;78.40;;;;;;4978859;28;20468;-87
2021/04/16 20:19:07;;;;;;;6.93;6.07;;;7.00;80.10;;;;;;4920410;28;20463;-86
2021/04/16 20:25:44;;;;;;;6.67;6.07;;;7.00;80.50;;;;;;4936013;28;20413;-88
2021/04/16 20:40:01;;;;;;;7.30;6.20;;;6.80;81.40;;;;;;4888519;29;20459;-86
2021/04/16 21:10:16;;;;;;;7.93;7.13;;;6.50;83.30;;;;;;4948360;29;20484;-87
2021/04/16 21:13:34;;;;;;;7.30;6.60;;;6.60;83.30;;;;;;4912370;29;20443;-87
2021/04/16 21:20:38;;;;;;;7.47;6.77;;;6.70;83.50;;;;;;4882074;28;20462;-86
2021/04/16 21:26:49;;;;;;;7.47;6.80;;;6.60;83.40;;;;;;4872506;29;20439;-87
2021/04/16 21:29:38;;;;;;;7.13;6.53;;;6.60;83.60;;;;;;4870364;29;20486;-85
2021/04/16 21:32:23;;;;;;;7.50;6.80;;;6.60;83.70;;;;;;4929388;28;20941;-87
2021/04/16 21:34:52;;;;;;;7.63;6.93;;;6.60;83.70;;;;;;5022481;28;20491;-85
2021/04/16 21:37:25;;;;;;;8.23;7.47;;;6.60;83.40;;;;;;5047737;28;20453;-85
2021/04/16 21:39:55;;;;;;;8.33;7.53;;;6.60;83.30;;;;;;5051579;28;20451;-85
2021/04/16 21:42:26;;;;;;;9.07;8.17;;;6.70;83.80;;;;;;5062645;28;20449;-84
2021/04/16 21:44:55;;;;;;;9.03;8.13;;;6.70;84.00;;;;;;5059241;28;20444;-86
2021/04/16 21:47:26;;;;;;;8.97;8.07;;;6.60;83.60;;;;;;5050320;28;20492;-85
2021/04/16 21:49:56;;;;;;;10.83;9.93;;;6.70;83.80;;;;;;5057616;28;20448;-85
2021/04/16 21:52:27;;;;;;;8.53;7.73;;;6.60;83.80;;;;;;5055892;28;20463;-85
2021/04/16 21:54:56;;;;;;;8.30;7.50;;;6.60;84.10;;;;;;5051072;28;20526;-86
2021/04/16 21:57:24;;;;;;;8.53;7.73;;;6.70;84.60;;;;;;5053227;28;20463;-85
2021/04/16 21:59:50;;;;;;;8.70;7.90;;;6.70;83.80;;;;;;5049615;28;20437;-86
2021/04/16 22:02:21;;;;;;;10.97;9.53;;;6.70;84.20;;;;;;5055219;28;20464;-86
2021/04/16 22:04:50;;;;;;;8.93;8.03;;;6.70;84.40;;;;;;5053251;28;20750;-87
2021/04/16 22:07:19;;;;;;;9.23;8.33;;;6.70;84.70;;;;;;5046972;28;20476;-86
2021/04/16 22:09:51;;;;;;;9.00;8.10;;;6.70;85.30;;;;;;5050587;28;20444;-86
2021/04/16 22:12:24;;;;;;;8.70;7.90;;;6.60;85.70;;;;;;5062247;28;20445;-85
2021/04/16 22:14:54;;;;;;;8.40;7.60;;;6.60;85.70;;;;;;5055881;28;20475;-87
2021/04/16 22:17:25;;;;;;;9.33;8.43;;;6.60;85.70;;;;;;5047465;28;20472;-86
2021/04/16 22:19:52;;;;;;;8.63;7.83;;;6.50;85.80;;;;;;5043945;28;20444;-85
2021/04/16 22:22:22;;;;;;;9.97;8.97;;;6.50;86.50;;;;;;5047046;28;20467;-85
2021/04/16 22:24:54;;;;;;;9.70;8.27;;;6.60;86.80;;;;;;5045539;28;20463;-85
2021/04/16 22:27:41;;;;;;;9.00;8.10;;;6.60;86.50;;;;;;5046143;28;20512;-85
2021/04/16 22:30:26;;;;;;;8.93;8.13;;;6.50;86.80;;;;;;5045019;28;20497;-86
2021/04/16 22:32:55;;;;;;;9.40;8.50;;;6.50;87.10;;;;;;5046471;28;20843;-85
2021/04/16 22:35:25;;;;;;;9.23;8.30;;;6.50;87.30;;;;;;5043498;28;20503;-85
2021/04/16 22:37:52;;;;;;;9.67;8.77;;;6.50;87.50;;;;;;5060764;28;20458;-85
2021/04/16 22:40:23;;;;;;;10.00;9.10;;;6.50;87.60;;;;;;5049461;28;20776;-87
2021/04/16 22:42:51;;;;;;;10.23;9.20;;;6.40;88.00;;;;;;5044268;28;20932;-86
2021/04/16 22:45:38;;;;;;;9.63;8.83;;;6.40;88.30;;;;;;5044015;28;20440;-85
2021/04/16 22:48:17;;;;;;;8.73;7.83;;;6.40;88.20;;;;;;5042769;28;20452;-86
2021/04/16 22:50:45;;;;;;;9.63;8.53;;;6.40;88.20;;;;;;5043316;28;20438;-86
2021/04/16 22:53:24;;;;;;;9.87;8.90;;;6.40;88.20;;;;;;5045692;28;20441;-87
2021/04/16 22:56:01;;;;;;;9.07;8.17;;;6.40;88.20;;;;;;5045896;28;20475;-88
2021/04/16 22:58:28;;;;;;;9.00;8.20;;;6.40;88.50;;;;;;5047488;28;20547;-87
2021/04/16 23:01:00;;;;;;;8.60;7.80;;;6.40;88.80;;;;;;5051825;28;20548;-85
2021/04/16 23:03:35;;;;;;;9.37;8.47;;;6.40;88.90;;;;;;5052303;28;20506;-87
2021/04/16 23:06:07;;;;;;;9.50;8.70;;;6.40;88.80;;;;;;5057862;28;20473;-86
2021/04/16 23:08:37;;;;;;;11.23;9.97;;;6.40;89.10;;;;;;5051162;28;20476;-85
2021/04/16 23:11:06;;;;;;;12.40;9.13;;;6.40;89.10;;;;;;5044803;28;20448;-87
2021/04/16 23:13:35;;;;;;;8.20;7.40;;;6.40;89.10;;;;;;5060696;28;20507;-87
2021/04/16 23:16:07;;;;;;;10.33;9.17;;;6.40;89.10;;;;;;5063282;28;20483;-88
2021/04/16 23:18:33;;;;;;;9.60;8.57;;;6.40;89.20;;;;;;5059901;28;20475;-87
2021/04/16 23:21:00;;;;;;;9.93;9.03;;;6.30;89.70;;;;;;5061432;28;20477;-87
2021/04/16 23:23:31;;;;;;;9.20;8.40;;;6.30;89.70;;;;;;5061154;28;20480;-87
2021/04/16 23:25:59;;;;;;;8.50;7.70;;;6.30;89.60;;;;;;5060081;28;20439;-87
2021/04/16 23:28:28;;;;;;;9.73;8.83;;;6.30;89.70;;;;;;5062247;28;20448;-87
2021/04/16 23:30:58;;;;;;;11.17;10.00;;;6.20;89.90;;;;;;5059829;28;20448;-86
2021/04/16 23:34:02;;;;;;;9.13;8.33;;;6.20;90.00;;;;;;5061224;28;20444;-87
2021/04/16 23:36:57;;;;;;;10.27;9.27;;;6.10;90.30;;;;;;5080073;28;20455;-87
2021/04/16 23:39:29;;;;;;;11.10;10.00;;;6.20;90.30;;;;;;5080925;28;20445;-87
2021/04/16 23:41:56;;;;;;;13.07;9.83;;;6.10;90.40;;;;;;5081048;28;20431;-88
2021/04/16 23:44:24;;;;;;;11.57;10.47;;;6.00;90.60;;;;;;5080639;28;20440;-88
2021/04/16 23:46:52;;;;;;;10.27;9.27;;;6.00;90.80;;;;;;5073569;28;20437;-87
2021/04/16 23:49:22;;;;;;;10.47;9.57;;;6.00;91.00;;;;;;5072889;28;20455;-87
2021/04/16 23:51:49;;;;;;;10.60;9.50;;;6.00;91.10;;;;;;5080971;28;20423;-87
2021/04/16 23:54:16;;;;;;;11.27;10.17;;;6.10;91.40;;;;;;5080621;28;20429;-87
2021/04/16 23:56:44;;;;;;;11.53;10.40;;;6.10;90.90;;;;;;5079942;28;20480;-87
2021/04/16 23:59:11;;;;;;;10.57;9.30;;;6.10;91.00;;;;;;5059625;28;20539;-86
